Aérodrome :
LOGIN :

S'inscrire | Disclaimer

   EN    FR    IT 

 










Légende :    VFR   VFR Marginal   IFR   IFR Intensif   IFR Très Intensif
Visi : 
Plafond : 
>= 8 km
>= 3000ft
5 à 8 km
1000 à 3000 ft
1500m à 5 km
500 à 1000 ft
800 à 1500m
200 à 500 ft
< 800m
< 200 ft
Symboles :   Orages  Brouillard  Fortes neiges  Fortes précipitations  Vent > 20 kt
SIGMETs :   Divers  Orages  Givrage  Turbulence  Onde Orograph.  Cendres Volcan.






- Altitude de l'aérodrome : 939 ft


LKKB - Kbely Air Base

DERNIER METAR :
  • 210400Z 20004KT CAVOK M05/M06 Q1042 NOSIG

METARs EXPIRÉS :
  • 210300Z 19005KT 9999 SCT045 M03/M04 Q1043
  • 210200Z 17003KT 9999 SCT045 M04/M05 Q1044

TAF TAF LKKB
Valide du 21 à 00h jusqu'au 22 à 00h UTC


202300Z 2100/2200 VRB02KT 9999 SCT040
BECMG 2102/2104 3000 BR NSC
TEMPO 2102/2109 1200 BR BKN002
PROB40
TEMPO 2103/2108 0200 FZFG VV001
BECMG 2109/2112 22005KT CAVOK
BECMG 2122/2200 3000 BR NSC



MET'MAP, la Météo Aéronautique d'un coup d'oeil ! - Copyright ORBIFLY Décembre 2007 - Disclaimer

ORBIFLY MET'MAP TEAM :

Programmation & Développement : Alexandra Zaïnal
Sur une idée originale de : Baudouin d'Aumeries
Assistance à la programmation : Marc-Olivier Méhu
Soutien technique & logistique : Manuel Goepfert

Contact : metmap@orbifly.com




SOURCES & CREDITS :

   NOAA